General Juan N Alvarez International Airport
MMAA : now visible

Airfield :











YOU CAN JOIN US ON...

 
LOGIN :

Register | Disclaimer

   EN    FR    IT 

 









Legend :    VFR   Marginal VFR   IFR   Intensive IFR   Very Intensive IFR
Visi :
Ceiling :
>= 8 km
>= 3000ft
5 to 8 km
1000 to 3000 ft
1500m to 5 km
500 to 1000 ft
800 to 1500m
200 to 500 ft
< 800m
< 200 ft
Symbols :   Thunderstorms  Fog  Heavy snow  Heavy precipitations  Wind > 20 kt






- Airport Elevation : 16 ft
- IATA code : ACA


MMAA - General Juan N Alvarez International

CURRENT METAR :
  • 150246Z 00000KT 6SM SKC 26/23 A2988 RMK SLP112 52022 905 HZY CU

EXPIRED METARs :
  • 150144Z 00000KT 6SM FEW015 26/23 A2986 RMK 8/100 HZY
  • 150040Z 00000KT 6SM FEW015 27/23 A2985 RMK 8/100 HZY

TAF TAF MMAA
Valid from the 15 at 00:00 until the 16 at 06:00 UTC


142302Z 1500/1606 17005KT 6SM HZ SCT015 TX30/1518Z TN24/1510Z
FM151500 24010KT P6SM SKC
BECMG 1601/1602 30005KT



MET'MAP, your aeronautical weather chart ! - Copyright ORBIFLY December 2007 - Disclaimer

ORBIFLY MET'MAP TEAM :

Programming & Development : Alexandra Zaïnal
Concept & original design : Baudouin d'Aumeries
Assistance for programming : Marc-Olivier Méhu
Technical & hardware support : Manuel Goepfert

Contact : metmap@orbifly.com




SOURCES & CREDITS :

   NOAA       Earth
Advisory